Strona główna
METAR-TAF:

METAR-TAF

Lotnisko :

Duszanbe, Tadżykistan

Port lotniczy Duszanbe

Szerokość geograficzna: 38-33N, Długość geograficzna: 068-47E, wysokość: 803 m

Aktualna obserwacja pogody

Raport powstał 14 minut temu, godzina 05:30 UTC
Cisza
Temperatura 1°C
Wilgotność 80%
Ciśnienie 1023 hPa
Widzialność: 0500 m
dym

METAR: UTDD 180530Z 00000MPS 0600 0500N R09/0900N FU NSC 01/M02 Q1023 R09/CLRD// TEMPO 0400 FU RMK QFE699/0931

czas: 10:44 (05:44 UTC)

Prognoza

Raport powstał 2 godziny i 44 minut temu, godzina 03:00 UTC
Prognoza ważna od 18 godzina 04 UTC do 18 godzina 16 UTC
Wiatr 4 kt z kierunków zmiennych
Widzialność: 2100 m
Rozproszone chmury na wysokości 6000 ft
Przerywane chmury na wysokości 10000 ft
zamglenie
Przejściowo
od 18 godzina 04 UTC do 18 godzina 06 UTC
Widzialność: 1000 m
zamglenie, dym

TAF: UTDD 180300Z 1804/1816 VRB02MPS 2100 BR SCT060 BKN100 TEMPO 1804/1806 1000 BR FU

Obserwacja i prognoza pogody dla ponad 4000 lotnisk (raport METAR i TAF).

Dostępne stacje oznaczono żółtymi i czerwonymi punktami na mapie.

Najedź kursorem aby zobaczyć nazwę stacji.

Kliknij aby zobaczyć obserwacje i prognozy pogody.

Aby zmienić mapę: kliknij na zielony przycisk z czarnym krzyżykiem, aby powiększyć; na zielony przycisk z myślnikiem, aby pomniejszyć; na zielone strzałki, aby przejść do map sąsiednich.


METAR-TAF: